sensor_id;sensor_type;location;lat;lon;timestamp;pressure;altitude;pressure_sealevel;temperature;humidity
7532;BME280;3807;49.030;8.714;2022-12-29T00:01:22;98806.69;;;10.91;71.07
7532;BME280;3807;49.030;8.714;2022-12-29T00:03:47;98804.84;;;10.95;70.79
7532;BME280;3807;49.030;8.714;2022-12-29T00:06:13;98798.97;;;10.93;70.69
7532;BME280;3807;49.030;8.714;2022-12-29T00:08:38;98797.00;;;11.00;70.09
7532;BME280;3807;49.030;8.714;2022-12-29T00:11:18;98797.47;;;11.08;70.13
7532;BME280;3807;49.030;8.714;2022-12-29T00:13:44;98809.19;;;11.12;69.92
7532;BME280;3807;49.030;8.714;2022-12-29T00:16:29;98801.69;;;11.09;70.77
7532;BME280;3807;49.030;8.714;2022-12-29T00:18:54;98807.78;;;11.05;71.58
7532;BME280;3807;49.030;8.714;2022-12-29T00:21:22;98799.06;;;11.10;70.99
7532;BME280;3807;49.030;8.714;2022-12-29T00:24:10;98803.47;;;11.07;71.65
7532;BME280;3807;49.030;8.714;2022-12-29T00:27:10;98802.09;;;11.18;70.65
7532;BME280;3807;49.030;8.714;2022-12-29T00:29:54;98797.81;;;11.19;71.03
7532;BME280;3807;49.030;8.714;2022-12-29T00:32:38;98799.69;;;11.15;71.46
7532;BME280;3807;49.030;8.714;2022-12-29T00:35:27;98801.41;;;11.15;70.79
7532;BME280;3807;49.030;8.714;2022-12-29T00:37:53;98800.06;;;11.27;70.17
7532;BME280;3807;49.030;8.714;2022-12-29T00:40:38;98803.28;;;11.30;70.79
7532;BME280;3807;49.030;8.714;2022-12-29T00:43:22;98805.19;;;11.25;71.72
7532;BME280;3807;49.030;8.714;2022-12-29T00:46:07;98799.56;;;11.37;71.21
7532;BME280;3807;49.030;8.714;2022-12-29T00:48:32;98798.66;;;11.38;70.65
7532;BME280;3807;49.030;8.714;2022-12-29T00:51:16;98810.38;;;11.24;71.13
7532;BME280;3807;49.030;8.714;2022-12-29T00:53:41;98820.16;;;11.33;71.71
7532;BME280;3807;49.030;8.714;2022-12-29T00:56:07;98806.22;;;11.21;71.89
7532;BME280;3807;49.030;8.714;2022-12-29T00:58:32;98813.28;;;11.16;72.73
7532;BME280;3807;49.030;8.714;2022-12-29T01:01:05;98810.63;;;11.17;72.23
7532;BME280;3807;49.030;8.714;2022-12-29T01:03:32;98808.53;;;11.27;71.47
7532;BME280;3807;49.030;8.714;2022-12-29T01:06:00;98821.88;;;11.32;71.68
7532;BME280;3807;49.030;8.714;2022-12-29T01:08:29;98819.47;;;11.29;72.08
7532;BME280;3807;49.030;8.714;2022-12-29T01:11:00;98812.19;;;11.40;72.74
7532;BME280;3807;49.030;8.714;2022-12-29T01:13:25;98827.22;;;11.26;74.00
7532;BME280;3807;49.030;8.714;2022-12-29T01:15:51;98816.81;;;11.12;74.70
7532;BME280;3807;49.030;8.714;2022-12-29T01:18:17;98828.56;;;11.16;74.73
7532;BME280;3807;49.030;8.714;2022-12-29T01:20:42;98830.47;;;11.11;75.18
7532;BME280;3807;49.030;8.714;2022-12-29T01:23:07;98826.53;;;11.04;76.22
7532;BME280;3807;49.030;8.714;2022-12-29T01:25:33;98836.28;;;10.94;77.50
7532;BME280;3807;49.030;8.714;2022-12-29T01:27:58;98844.44;;;11.02;76.91
7532;BME280;3807;49.030;8.714;2022-12-29T01:30:23;98837.63;;;11.03;77.26
7532;BME280;3807;49.030;8.714;2022-12-29T01:32:49;98831.09;;;11.16;77.73
7532;BME280;3807;49.030;8.714;2022-12-29T01:35:14;98836.81;;;11.21;76.87
7532;BME280;3807;49.030;8.714;2022-12-29T01:37:39;98821.53;;;11.40;76.02
7532;BME280;3807;49.030;8.714;2022-12-29T01:40:05;98825.94;;;11.17;77.15
7532;BME280;3807;49.030;8.714;2022-12-29T01:42:30;98818.81;;;11.05;77.02
7532;BME280;3807;49.030;8.714;2022-12-29T01:44:58;98818.84;;;11.24;76.37
7532;BME280;3807;49.030;8.714;2022-12-29T01:50:09;98819.97;;;11.37;76.12
7532;BME280;3807;49.030;8.714;2022-12-29T01:52:40;98817.47;;;11.55;75.48
7532;BME280;3807;49.030;8.714;2022-12-29T01:55:07;98819.66;;;11.43;75.76
7532;BME280;3807;49.030;8.714;2022-12-29T01:57:37;98813.28;;;11.35;75.89
7532;BME280;3807;49.030;8.714;2022-12-29T02:00:05;98817.19;;;11.42;76.19
7532;BME280;3807;49.030;8.714;2022-12-29T02:02:33;98820.09;;;11.53;75.15
7532;BME280;3807;49.030;8.714;2022-12-29T02:05:05;98811.56;;;11.54;74.90
7532;BME280;3807;49.030;8.714;2022-12-29T02:07:32;98816.94;;;11.48;74.98
7532;BME280;3807;49.030;8.714;2022-12-29T02:09:59;98812.31;;;11.37;75.96
7532;BME280;3807;49.030;8.714;2022-12-29T02:12:26;98803.97;;;11.34;76.23
7532;BME280;3807;49.030;8.714;2022-12-29T02:14:55;98806.03;;;11.26;75.82
7532;BME280;3807;49.030;8.714;2022-12-29T02:17:55;98804.84;;;11.33;75.34
7532;BME280;3807;49.030;8.714;2022-12-29T02:28:27;98801.75;;;11.45;73.23
7532;BME280;3807;49.030;8.714;2022-12-29T02:31:36;98790.31;;;11.35;74.95
7532;BME280;3807;49.030;8.714;2022-12-29T02:34:06;98795.91;;;11.43;74.42
7532;BME280;3807;49.030;8.714;2022-12-29T02:39:38;98803.63;;;11.41;73.89
7532;BME280;3807;49.030;8.714;2022-12-29T02:44:56;98792.84;;;11.54;73.89
7532;BME280;3807;49.030;8.714;2022-12-29T02:47:41;98797.81;;;11.57;73.72
7532;BME280;3807;49.030;8.714;2022-12-29T02:53:01;98790.78;;;11.62;73.63
7532;BME280;3807;49.030;8.714;2022-12-29T02:55:27;98786.06;;;11.54;72.54
7532;BME280;3807;49.030;8.714;2022-12-29T03:00:36;98783.38;;;11.38;75.23
7532;BME280;3807;49.030;8.714;2022-12-29T03:06:11;98769.16;;;11.52;74.63
7532;BME280;3807;49.030;8.714;2022-12-29T03:11:09;98770.75;;;11.54;73.82
7532;BME280;3807;49.030;8.714;2022-12-29T03:14:12;98761.38;;;11.55;72.47
7532;BME280;3807;49.030;8.714;2022-12-29T03:17:07;98764.47;;;11.42;74.12
7532;BME280;3807;49.030;8.714;2022-12-29T03:19:36;98749.69;;;11.51;73.81
7532;BME280;3807;49.030;8.714;2022-12-29T03:22:05;98760.38;;;11.57;73.73
7532;BME280;3807;49.030;8.714;2022-12-29T03:25:38;98759.56;;;11.57;72.89
7532;BME280;3807;49.030;8.714;2022-12-29T03:27:44;98753.47;;;11.42;74.54
7532;BME280;3807;49.030;8.714;2022-12-29T03:30:11;98753.31;;;11.45;73.96
7532;BME280;3807;49.030;8.714;2022-12-29T03:32:47;98759.88;;;11.51;74.11
7532;BME280;3807;49.030;8.714;2022-12-29T03:35:16;98761.09;;;11.42;74.68
7532;BME280;3807;49.030;8.714;2022-12-29T03:37:53;98758.87;;;11.53;73.49
7532;BME280;3807;49.030;8.714;2022-12-29T03:40:21;98755.84;;;11.64;73.01
7532;BME280;3807;49.030;8.714;2022-12-29T03:42:48;98751.47;;;11.85;71.83
7532;BME280;3807;49.030;8.714;2022-12-29T03:45:13;98741.25;;;11.49;74.07
7532;BME280;3807;49.030;8.714;2022-12-29T03:47:39;98737.88;;;11.48;73.76
7532;BME280;3807;49.030;8.714;2022-12-29T03:50:05;98731.75;;;11.52;73.71
7532;BME280;3807;49.030;8.714;2022-12-29T03:52:31;98741.03;;;11.53;73.88
7532;BME280;3807;49.030;8.714;2022-12-29T03:54:56;98739.12;;;11.76;72.56
7532;BME280;3807;49.030;8.714;2022-12-29T03:57:21;98737.25;;;11.62;74.14
7532;BME280;3807;49.030;8.714;2022-12-29T03:59:47;98728.53;;;11.66;72.24
7532;BME280;3807;49.030;8.714;2022-12-29T04:02:12;98729.72;;;11.59;74.62
7532;BME280;3807;49.030;8.714;2022-12-29T04:04:37;98727.31;;;11.56;73.41
7532;BME280;3807;49.030;8.714;2022-12-29T04:07:03;98714.84;;;11.50;73.96
7532;BME280;3807;49.030;8.714;2022-12-29T04:09:28;98699.53;;;11.68;73.13
7532;BME280;3807;49.030;8.714;2022-12-29T04:11:55;98702.59;;;11.58;73.39
7532;BME280;3807;49.030;8.714;2022-12-29T04:14:20;98701.38;;;11.48;73.05
7532;BME280;3807;49.030;8.714;2022-12-29T04:16:45;98698.06;;;11.45;74.49
7532;BME280;3807;49.030;8.714;2022-12-29T04:19:11;98696.41;;;11.44;73.12
7532;BME280;3807;49.030;8.714;2022-12-29T04:21:36;98692.94;;;11.45;73.39
7532;BME280;3807;49.030;8.714;2022-12-29T04:24:01;98701.91;;;11.54;72.77
7532;BME280;3807;49.030;8.714;2022-12-29T04:26:27;98688.97;;;11.57;73.06
7532;BME280;3807;49.030;8.714;2022-12-29T04:28:52;98681.87;;;11.64;73.45
7532;BME280;3807;49.030;8.714;2022-12-29T04:31:17;98683.97;;;11.56;73.57
7532;BME280;3807;49.030;8.714;2022-12-29T04:33:43;98686.97;;;11.64;72.96
7532;BME280;3807;49.030;8.714;2022-12-29T04:36:08;98683.00;;;11.58;73.07
7532;BME280;3807;49.030;8.714;2022-12-29T04:38:34;98672.72;;;11.60;73.16
7532;BME280;3807;49.030;8.714;2022-12-29T04:41:00;98685.62;;;11.57;73.20
7532;BME280;3807;49.030;8.714;2022-12-29T04:43:26;98686.97;;;11.64;72.10
7532;BME280;3807;49.030;8.714;2022-12-29T04:45:51;98687.19;;;11.59;72.59
7532;BME280;3807;49.030;8.714;2022-12-29T04:48:17;98673.69;;;11.57;72.00
7532;BME280;3807;49.030;8.714;2022-12-29T04:50:43;98678.78;;;11.57;72.63
7532;BME280;3807;49.030;8.714;2022-12-29T04:53:08;98674.00;;;11.51;72.73
7532;BME280;3807;49.030;8.714;2022-12-29T04:55:34;98681.00;;;11.65;71.54
7532;BME280;3807;49.030;8.714;2022-12-29T04:57:59;98689.84;;;11.75;71.19
7532;BME280;3807;49.030;8.714;2022-12-29T05:00:25;98692.97;;;11.63;72.52
7532;BME280;3807;49.030;8.714;2022-12-29T05:02:50;98694.16;;;11.56;72.41
7532;BME280;3807;49.030;8.714;2022-12-29T05:05:16;98706.81;;;11.76;71.96
7532;BME280;3807;49.030;8.714;2022-12-29T05:07:41;98707.75;;;11.56;72.39
7532;BME280;3807;49.030;8.714;2022-12-29T05:10:07;98704.84;;;11.81;72.44
7532;BME280;3807;49.030;8.714;2022-12-29T05:12:34;98709.59;;;11.72;72.51
7532;BME280;3807;49.030;8.714;2022-12-29T05:15:00;98710.53;;;11.69;72.92
7532;BME280;3807;49.030;8.714;2022-12-29T05:17:28;98703.06;;;11.83;71.97
7532;BME280;3807;49.030;8.714;2022-12-29T05:19:53;98697.94;;;11.83;72.42
7532;BME280;3807;49.030;8.714;2022-12-29T05:22:18;98716.09;;;11.96;71.56
7532;BME280;3807;49.030;8.714;2022-12-29T05:24:44;98701.97;;;11.89;72.83
7532;BME280;3807;49.030;8.714;2022-12-29T05:27:09;98693.25;;;11.93;72.97
7532;BME280;3807;49.030;8.714;2022-12-29T05:29:35;98696.63;;;11.94;72.25
7532;BME280;3807;49.030;8.714;2022-12-29T05:32:00;98700.44;;;11.85;71.79
7532;BME280;3807;49.030;8.714;2022-12-29T05:34:25;98693.91;;;11.79;72.98
7532;BME280;3807;49.030;8.714;2022-12-29T05:36:51;98704.66;;;11.86;72.26
7532;BME280;3807;49.030;8.714;2022-12-29T05:39:16;98700.56;;;11.82;72.04
7532;BME280;3807;49.030;8.714;2022-12-29T05:41:42;98698.81;;;11.84;71.84
7532;BME280;3807;49.030;8.714;2022-12-29T05:44:07;98697.06;;;11.84;71.80
7532;BME280;3807;49.030;8.714;2022-12-29T05:46:32;98691.97;;;12.02;71.34
7532;BME280;3807;49.030;8.714;2022-12-29T05:48:58;98686.28;;;11.97;72.39
7532;BME280;3807;49.030;8.714;2022-12-29T05:51:23;98691.97;;;12.02;71.57
7532;BME280;3807;49.030;8.714;2022-12-29T05:53:49;98688.91;;;11.95;71.91
7532;BME280;3807;49.030;8.714;2022-12-29T05:56:14;98686.12;;;12.00;73.05
7532;BME280;3807;49.030;8.714;2022-12-29T05:58:39;98697.59;;;11.91;72.24
7532;BME280;3807;49.030;8.714;2022-12-29T06:01:05;98703.31;;;11.96;71.56
7532;BME280;3807;49.030;8.714;2022-12-29T06:03:30;98702.84;;;12.05;72.28
7532;BME280;3807;49.030;8.714;2022-12-29T06:05:55;98707.72;;;12.27;70.99
7532;BME280;3807;49.030;8.714;2022-12-29T06:08:21;98713.06;;;12.23;71.20
7532;BME280;3807;49.030;8.714;2022-12-29T06:10:46;98711.66;;;12.17;71.15
7532;BME280;3807;49.030;8.714;2022-12-29T06:13:11;98701.34;;;12.19;72.16
7532;BME280;3807;49.030;8.714;2022-12-29T06:15:37;98700.44;;;12.20;71.94
7532;BME280;3807;49.030;8.714;2022-12-29T06:18:02;98697.19;;;12.33;71.25
7532;BME280;3807;49.030;8.714;2022-12-29T06:20:27;98690.91;;;12.23;71.32
7532;BME280;3807;49.030;8.714;2022-12-29T06:22:53;98684.59;;;12.13;71.48
7532;BME280;3807;49.030;8.714;2022-12-29T06:25:18;98680.25;;;12.15;71.40
7532;BME280;3807;49.030;8.714;2022-12-29T06:27:44;98686.28;;;11.97;72.87
7532;BME280;3807;49.030;8.714;2022-12-29T06:30:10;98682.13;;;12.11;72.87
7532;BME280;3807;49.030;8.714;2022-12-29T06:32:36;98677.84;;;12.12;71.85
7532;BME280;3807;49.030;8.714;2022-12-29T06:35:03;98683.47;;;12.19;70.76
7532;BME280;3807;49.030;8.714;2022-12-29T06:37:29;98694.50;;;12.19;71.32
7532;BME280;3807;49.030;8.714;2022-12-29T06:39:54;98686.78;;;12.21;72.30
7532;BME280;3807;49.030;8.714;2022-12-29T06:42:20;98682.56;;;12.20;70.95
7532;BME280;3807;49.030;8.714;2022-12-29T06:44:45;98695.28;;;12.21;71.56
7532;BME280;3807;49.030;8.714;2022-12-29T06:47:10;98680.25;;;12.15;72.57
7532;BME280;3807;49.030;8.714;2022-12-29T06:49:36;98670.44;;;12.07;72.84
7532;BME280;3807;49.030;8.714;2022-12-29T06:52:01;98675.81;;;12.19;71.32
7532;BME280;3807;49.030;8.714;2022-12-29T06:54:29;98660.13;;;12.26;71.22
7532;BME280;3807;49.030;8.714;2022-12-29T06:56:54;98665.31;;;12.25;71.73
7532;BME280;3807;49.030;8.714;2022-12-29T06:59:20;98671.09;;;12.28;71.70
7532;BME280;3807;49.030;8.714;2022-12-29T07:01:45;98658.44;;;12.43;71.09
7532;BME280;3807;49.030;8.714;2022-12-29T07:04:10;98669.72;;;12.38;71.48
7532;BME280;3807;49.030;8.714;2022-12-29T07:06:36;98669.09;;;12.33;71.58
7532;BME280;3807;49.030;8.714;2022-12-29T07:09:01;98673.25;;;12.36;70.23
7532;BME280;3807;49.030;8.714;2022-12-29T07:11:27;98675.03;;;12.34;70.26
7532;BME280;3807;49.030;8.714;2022-12-29T07:13:52;98679.59;;;12.45;69.49
7532;BME280;3807;49.030;8.714;2022-12-29T07:16:17;98667.72;;;12.44;70.30
7532;BME280;3807;49.030;8.714;2022-12-29T07:18:43;98685.41;;;12.48;70.45
7532;BME280;3807;49.030;8.714;2022-12-29T07:21:08;98684.06;;;12.57;70.29
7532;BME280;3807;49.030;8.714;2022-12-29T07:23:34;98679.69;;;12.43;69.58
7532;BME280;3807;49.030;8.714;2022-12-29T07:26:07;98685.69;;;12.42;69.27
7532;BME280;3807;49.030;8.714;2022-12-29T07:28:35;98682.91;;;12.47;70.44
7532;BME280;3807;49.030;8.714;2022-12-29T07:31:00;98681.66;;;12.38;69.89
7532;BME280;3807;49.030;8.714;2022-12-29T07:33:28;98689.81;;;12.45;70.80
7532;BME280;3807;49.030;8.714;2022-12-29T07:35:54;98678.56;;;12.49;68.91
7532;BME280;3807;49.030;8.714;2022-12-29T07:38:19;98681.22;;;12.63;69.21
7532;BME280;3807;49.030;8.714;2022-12-29T07:40:44;98680.69;;;12.56;68.96
7532;BME280;3807;49.030;8.714;2022-12-29T07:43:10;98686.12;;;12.50;69.12
7532;BME280;3807;49.030;8.714;2022-12-29T07:45:35;98693.72;;;12.52;69.00
7532;BME280;3807;49.030;8.714;2022-12-29T07:48:00;98698.97;;;12.49;68.74
7532;BME280;3807;49.030;8.714;2022-12-29T07:50:27;98695.53;;;12.66;69.07
7532;BME280;3807;49.030;8.714;2022-12-29T07:52:53;98692.41;;;12.60;68.27
7532;BME280;3807;49.030;8.714;2022-12-29T07:55:18;98684.38;;;12.51;69.05
7532;BME280;3807;49.030;8.714;2022-12-29T07:57:43;98700.53;;;12.51;68.04
7532;BME280;3807;49.030;8.714;2022-12-29T08:00:09;98696.44;;;12.64;67.55
7532;BME280;3807;49.030;8.714;2022-12-29T08:02:35;98696.66;;;12.77;68.29
7532;BME280;3807;49.030;8.714;2022-12-29T08:05:01;98702.72;;;12.75;67.58
7532;BME280;3807;49.030;8.714;2022-12-29T08:07:27;98711.88;;;12.79;67.95
7532;BME280;3807;49.030;8.714;2022-12-29T08:09:52;98706.19;;;12.90;68.29
7532;BME280;3807;49.030;8.714;2022-12-29T08:12:18;98701.59;;;12.80;68.39
7532;BME280;3807;49.030;8.714;2022-12-29T08:14:43;98716.97;;;12.63;68.39
7532;BME280;3807;49.030;8.714;2022-12-29T08:17:09;98698.19;;;12.64;68.40
7532;BME280;3807;49.030;8.714;2022-12-29T08:19:35;98707.84;;;12.75;68.33
7532;BME280;3807;49.030;8.714;2022-12-29T08:22:00;98713.34;;;12.67;68.49
7532;BME280;3807;49.030;8.714;2022-12-29T08:24:26;98706.66;;;12.64;67.67
7532;BME280;3807;49.030;8.714;2022-12-29T08:26:52;98708.75;;;12.74;68.90
7532;BME280;3807;49.030;8.714;2022-12-29T08:29:17;98706.94;;;12.76;69.11
7532;BME280;3807;49.030;8.714;2022-12-29T08:31:43;98726.31;;;12.80;67.05
7532;BME280;3807;49.030;8.714;2022-12-29T08:34:08;98727.66;;;12.87;66.95
7532;BME280;3807;49.030;8.714;2022-12-29T08:36:33;98729.97;;;12.92;67.18
7532;BME280;3807;49.030;8.714;2022-12-29T08:38:59;98744.47;;;13.07;66.32
7532;BME280;3807;49.030;8.714;2022-12-29T08:41:24;98738.81;;;13.02;66.82
7532;BME280;3807;49.030;8.714;2022-12-29T08:43:50;98745.38;;;12.90;67.96
7532;BME280;3807;49.030;8.714;2022-12-29T08:46:16;98752.25;;;13.05;67.51
7532;BME280;3807;49.030;8.714;2022-12-29T08:48:41;98743.75;;;13.05;66.43
7532;BME280;3807;49.030;8.714;2022-12-29T08:51:07;98743.16;;;13.00;67.75
7532;BME280;3807;49.030;8.714;2022-12-29T08:53:33;98738.75;;;12.86;67.60
7532;BME280;3807;49.030;8.714;2022-12-29T08:56:00;98750.41;;;12.92;68.90
7532;BME280;3807;49.030;8.714;2022-12-29T08:58:26;98744.22;;;12.80;69.59
7532;BME280;3807;49.030;8.714;2022-12-29T09:00:55;98750.66;;;12.87;68.45
7532;BME280;3807;49.030;8.714;2022-12-29T09:03:22;98746.47;;;13.02;67.67
7532;BME280;3807;49.030;8.714;2022-12-29T09:05:52;98753.16;;;13.04;66.85
7532;BME280;3807;49.030;8.714;2022-12-29T09:08:18;98755.72;;;13.04;66.87
7532;BME280;3807;49.030;8.714;2022-12-29T09:10:44;98761.38;;;12.94;66.57
7532;BME280;3807;49.030;8.714;2022-12-29T09:13:10;98760.38;;;12.80;67.31
7532;BME280;3807;49.030;8.714;2022-12-29T09:15:36;98753.28;;;12.85;67.40
7532;BME280;3807;49.030;8.714;2022-12-29T09:18:02;98765.47;;;12.80;67.40
7532;BME280;3807;49.030;8.714;2022-12-29T09:20:27;98764.88;;;12.75;66.90
7532;BME280;3807;49.030;8.714;2022-12-29T09:22:53;98766.34;;;12.79;66.56
7532;BME280;3807;49.030;8.714;2022-12-29T09:25:18;98768.53;;;12.87;68.73
7532;BME280;3807;49.030;8.714;2022-12-29T09:27:45;98765.38;;;12.82;67.79
7532;BME280;3807;49.030;8.714;2022-12-29T09:30:11;98765.84;;;12.90;67.08
7532;BME280;3807;49.030;8.714;2022-12-29T09:32:37;98772.28;;;12.97;67.65
7532;BME280;3807;49.030;8.714;2022-12-29T09:35:03;98775.28;;;12.88;67.43
7532;BME280;3807;49.030;8.714;2022-12-29T09:37:29;98779.59;;;12.87;67.43
7532;BME280;3807;49.030;8.714;2022-12-29T09:39:54;98780.00;;;12.80;67.10
7532;BME280;3807;49.030;8.714;2022-12-29T09:45:15;98776.44;;;12.82;68.33
7532;BME280;3807;49.030;8.714;2022-12-29T09:47:43;98778.44;;;12.93;68.28
7532;BME280;3807;49.030;8.714;2022-12-29T09:52:53;98788.75;;;12.92;66.86
7532;BME280;3807;49.030;8.714;2022-12-29T09:55:45;98781.37;;;12.85;68.29
7532;BME280;3807;49.030;8.714;2022-12-29T09:58:18;98786.75;;;12.97;67.24
7532;BME280;3807;49.030;8.714;2022-12-29T10:01:23;98790.84;;;13.01;68.73
7532;BME280;3807;49.030;8.714;2022-12-29T10:04:00;98786.34;;;12.88;67.86
7532;BME280;3807;49.030;8.714;2022-12-29T10:09:38;98784.88;;;13.00;67.50
7532;BME280;3807;49.030;8.714;2022-12-29T10:25:31;98798.31;;;13.37;67.89
7532;BME280;3807;49.030;8.714;2022-12-29T10:28:01;98796.09;;;13.31;69.00
7532;BME280;3807;49.030;8.714;2022-12-29T10:30:28;98802.97;;;13.13;68.64
7532;BME280;3807;49.030;8.714;2022-12-29T10:32:57;98808.88;;;13.31;68.96
7532;BME280;3807;49.030;8.714;2022-12-29T10:35:26;98803.59;;;13.34;67.49
7532;BME280;3807;49.030;8.714;2022-12-29T10:38:27;98795.41;;;13.27;68.62
7532;BME280;3807;49.030;8.714;2022-12-29T10:40:58;98798.63;;;13.31;69.00
7532;BME280;3807;49.030;8.714;2022-12-29T10:43:45;98799.81;;;13.41;68.07
7532;BME280;3807;49.030;8.714;2022-12-29T10:46:15;98788.16;;;13.51;68.55
7532;BME280;3807;49.030;8.714;2022-12-29T10:48:42;98783.97;;;13.50;69.03
7532;BME280;3807;49.030;8.714;2022-12-29T10:51:22;98789.00;;;13.52;68.56
7532;BME280;3807;49.030;8.714;2022-12-29T10:53:48;98769.69;;;13.46;67.50
7532;BME280;3807;49.030;8.714;2022-12-29T10:56:39;98781.31;;;13.52;67.84
7532;BME280;3807;49.030;8.714;2022-12-29T10:59:25;98791.72;;;13.65;68.06
7532;BME280;3807;49.030;8.714;2022-12-29T11:02:00;98788.19;;;13.67;67.83
7532;BME280;3807;49.030;8.714;2022-12-29T11:07:58;98779.78;;;13.16;68.87
7532;BME280;3807;49.030;8.714;2022-12-29T11:15:48;98808.66;;;13.36;68.76
7532;BME280;3807;49.030;8.714;2022-12-29T11:18:25;98803.84;;;13.45;66.78
7532;BME280;3807;49.030;8.714;2022-12-29T11:20:54;98793.09;;;13.39;68.16
7532;BME280;3807;49.030;8.714;2022-12-29T11:28:31;98818.13;;;13.65;69.23
7532;BME280;3807;49.030;8.714;2022-12-29T11:31:02;98813.75;;;13.51;67.91
7532;BME280;3807;49.030;8.714;2022-12-29T11:33:29;98817.22;;;13.66;66.84
7532;BME280;3807;49.030;8.714;2022-12-29T11:36:04;98811.94;;;13.53;69.27
7532;BME280;3807;49.030;8.714;2022-12-29T11:38:36;98809.69;;;13.63;67.96
7532;BME280;3807;49.030;8.714;2022-12-29T11:41:03;98816.00;;;13.57;67.94
7532;BME280;3807;49.030;8.714;2022-12-29T11:43:37;98818.13;;;13.65;68.27
7532;BME280;3807;49.030;8.714;2022-12-29T11:46:03;98814.06;;;13.93;67.63
7532;BME280;3807;49.030;8.714;2022-12-29T11:48:33;98810.25;;;13.84;68.88
7532;BME280;3807;49.030;8.714;2022-12-29T11:51:03;98817.03;;;14.01;66.85
7532;BME280;3807;49.030;8.714;2022-12-29T11:53:51;98811.00;;;13.86;66.54
7532;BME280;3807;49.030;8.714;2022-12-29T11:56:21;98813.25;;;13.76;68.95
7532;BME280;3807;49.030;8.714;2022-12-29T11:58:49;98807.31;;;13.76;68.82
7532;BME280;3807;49.030;8.714;2022-12-29T12:01:20;98810.13;;;13.71;68.06
7532;BME280;3807;49.030;8.714;2022-12-29T12:06:24;98806.25;;;13.64;67.99
7532;BME280;3807;49.030;8.714;2022-12-29T12:08:55;98818.13;;;13.81;66.69
7532;BME280;3807;49.030;8.714;2022-12-29T12:11:31;98805.06;;;13.86;68.17
7532;BME280;3807;49.030;8.714;2022-12-29T12:16:40;98792.44;;;13.98;66.87
7532;BME280;3807;49.030;8.714;2022-12-29T12:21:40;98794.91;;;14.00;65.78
7532;BME280;3807;49.030;8.714;2022-12-29T12:24:36;98800.78;;;13.86;66.31
7532;BME280;3807;49.030;8.714;2022-12-29T12:27:30;98787.88;;;13.88;66.06
7532;BME280;3807;49.030;8.714;2022-12-29T12:30:00;98785.31;;;14.03;66.62
7532;BME280;3807;49.030;8.714;2022-12-29T12:38:42;98794.34;;;13.79;66.61
7532;BME280;3807;49.030;8.714;2022-12-29T12:41:13;98785.81;;;13.94;66.37
7532;BME280;3807;49.030;8.714;2022-12-29T12:43:45;98788.56;;;13.75;66.96
7532;BME280;3807;49.030;8.714;2022-12-29T13:00:09;98792.47;;;13.51;69.48
7532;BME280;3807;49.030;8.714;2022-12-29T13:03:01;98786.84;;;13.44;70.52
7532;BME280;3807;49.030;8.714;2022-12-29T13:08:52;98780.66;;;13.64;68.69
7532;BME280;3807;49.030;8.714;2022-12-29T13:11:23;98778.75;;;13.52;69.62
7532;BME280;3807;49.030;8.714;2022-12-29T13:19:31;98757.22;;;14.32;67.10
7532;BME280;3807;49.030;8.714;2022-12-29T13:22:05;98765.25;;;13.96;67.50
7532;BME280;3807;49.030;8.714;2022-12-29T13:27:41;98757.31;;;14.00;67.08
7532;BME280;3807;49.030;8.714;2022-12-29T13:30:26;98760.78;;;14.29;66.92
7532;BME280;3807;49.030;8.714;2022-12-29T13:33:15;98760.31;;;14.23;67.70
7532;BME280;3807;49.030;8.714;2022-12-29T13:36:02;98759.97;;;13.99;68.10
7532;BME280;3807;49.030;8.714;2022-12-29T13:38:51;98759.72;;;13.88;68.40
7532;BME280;3807;49.030;8.714;2022-12-29T13:41:38;98763.63;;;13.95;69.88
7532;BME280;3807;49.030;8.714;2022-12-29T13:44:05;98773.47;;;13.55;70.29
7532;BME280;3807;49.030;8.714;2022-12-29T13:46:39;98773.87;;;13.63;70.33
7532;BME280;3807;49.030;8.714;2022-12-29T13:49:18;98773.81;;;13.65;69.72
7532;BME280;3807;49.030;8.714;2022-12-29T13:51:58;98774.63;;;13.65;71.16
7532;BME280;3807;49.030;8.714;2022-12-29T13:57:51;98790.31;;;13.59;71.81
7532;BME280;3807;49.030;8.714;2022-12-29T14:00:20;98799.66;;;13.60;72.06
7532;BME280;3807;49.030;8.714;2022-12-29T14:07:49;98804.84;;;13.43;72.86
7532;BME280;3807;49.030;8.714;2022-12-29T14:10:32;98800.97;;;13.51;73.09
7532;BME280;3807;49.030;8.714;2022-12-29T14:15:29;98809.44;;;13.03;75.09
7532;BME280;3807;49.030;8.714;2022-12-29T14:20:38;98802.59;;;13.52;74.29
7532;BME280;3807;49.030;8.714;2022-12-29T14:25:55;98808.22;;;13.43;74.65
7532;BME280;3807;49.030;8.714;2022-12-29T14:28:45;98811.03;;;13.54;73.70
7532;BME280;3807;49.030;8.714;2022-12-29T14:33:40;98797.91;;;13.61;73.78
7532;BME280;3807;49.030;8.714;2022-12-29T14:36:26;98809.41;;;13.53;74.48
7532;BME280;3807;49.030;8.714;2022-12-29T14:38:58;98805.50;;;13.62;73.17
7532;BME280;3807;49.030;8.714;2022-12-29T14:41:27;98819.69;;;13.52;73.72
7532;BME280;3807;49.030;8.714;2022-12-29T14:44:00;98812.84;;;13.52;74.37
7532;BME280;3807;49.030;8.714;2022-12-29T14:46:43;98821.59;;;13.48;74.15
7532;BME280;3807;49.030;8.714;2022-12-29T14:49:16;98831.97;;;13.45;74.71
7532;BME280;3807;49.030;8.714;2022-12-29T14:51:43;98842.87;;;13.33;75.31
7532;BME280;3807;49.030;8.714;2022-12-29T14:57:06;98833.31;;;12.86;77.69
7532;BME280;3807;49.030;8.714;2022-12-29T14:59:34;98843.94;;;12.61;78.45
7532;BME280;3807;49.030;8.714;2022-12-29T15:02:03;98849.50;;;12.69;78.23
7532;BME280;3807;49.030;8.714;2022-12-29T15:04:34;98854.81;;;12.30;80.74
7532;BME280;3807;49.030;8.714;2022-12-29T15:07:01;98862.72;;;12.06;80.79
7532;BME280;3807;49.030;8.714;2022-12-29T15:09:37;98850.47;;;12.32;79.96
7532;BME280;3807;49.030;8.714;2022-12-29T15:17:43;98861.44;;;12.69;78.18
7532;BME280;3807;49.030;8.714;2022-12-29T15:20:24;98864.38;;;12.61;78.09
7532;BME280;3807;49.030;8.714;2022-12-29T15:23:14;98868.41;;;12.65;78.59
7532;BME280;3807;49.030;8.714;2022-12-29T15:28:21;98875.91;;;12.33;79.89
7532;BME280;3807;49.030;8.714;2022-12-29T15:30:56;98875.19;;;12.31;79.37
7532;BME280;3807;49.030;8.714;2022-12-29T15:33:23;98876.31;;;12.60;78.42
7532;BME280;3807;49.030;8.714;2022-12-29T15:35:50;98881.66;;;12.56;77.75
7532;BME280;3807;49.030;8.714;2022-12-29T15:38:22;98872.31;;;12.72;76.93
7532;BME280;3807;49.030;8.714;2022-12-29T15:40:52;98867.22;;;12.55;77.59
7532;BME280;3807;49.030;8.714;2022-12-29T15:43:31;98863.09;;;12.52;78.06
7532;BME280;3807;49.030;8.714;2022-12-29T15:46:01;98855.72;;;12.81;76.40
7532;BME280;3807;49.030;8.714;2022-12-29T15:48:29;98853.19;;;12.63;77.32
7532;BME280;3807;49.030;8.714;2022-12-29T15:50:57;98867.00;;;12.59;77.26